Página principal
METAR-TAF:

METAR-TAF

Aeroportos :

Ouagadougou, Burkina Faso

latitude: 12-21N, longitude: 001-31W, altura: 316 m

Observação actual do tempo

O boletim foi feito há 50 minutos, às 09:00 UTC
Vento 12 kt de sudoeste
Temperatura 29°C
Humidade 62%
Pressão 1015 hPa
Visibilidade 10 km ou mais
sem nuvens abaixo de 1500 metros e sem cumulonimbus

METAR: DFFD 270900Z 23012KT CAVOK 29/21 Q1015 NOSIG

Hora: 09:50 (09:50 UTC)

Previsão

O boletim foi feito há 4 horas e 50 minutos, às 05:00 UTC
Previsão válida de 27 às 06 UTC a 28 às 12 UTC
Vento 10 kt de su-sudoeste
Visibilidade 10 km ou mais
sem nuvens abaixo de 1500 metros e sem cumulonimbus
Temporariamente
de 27 às 15 UTC a 28 às 02 UTC
Visibilidade: 4000 m
Nuvens dispersasa uma altura de 2600 ft
Poucas nuvensa uma altura de 3600 ft, Cumulonimbus.
trovoada, chuva

TAF: DFFD 270500Z 2706/2812 20010KT CAVOK TEMPO 2715/2802 4000 TSRA SCT026 FEW036CB

Observações e previsões do tempo de mais de 4000 aeroportos (mensagens METAR e TAF).

As estações disponíveis são os pontos amarelos e vermelhos sobre o mapa.

Mova o rato sobre o mapa para ver o nome da estação.

Depois clique no ponto para visualizar as observações e previsões meteorológicas.

Para alterar o mapa : clique nos botões verdes com uma cruz preta para aumentar o zoom; no botão verde com uma pitada de zoom; ou nas setas verdes para mapas adjacentes.


METAR-TAF: